Exning, United Kingdom
Current Conditions -  °F | °C
As of 6:58 AM on Friday 19 Dec 2014 (Local Time) from EGUN Reporting Station
Overcast Overcast  
Wind Chill: 43°   Ceiling: 3500
Heat Index: 48°   Visibility: 6mi
Dew Point: 45°   Wind: 12mph
Humidity: 90%   Direction: 280°W
Pressure: 29.78"   Gusts: NA
Location:  52.27°N, 0.37°E
Report Text: EGUN 190658Z AUTO 28010KT 9999 OVC035 09/07 A2978 RMK AO2 SLP088 T00870071 $
Loading
Personal Weather Stations






























Interactive Weather Map New forecast layout! Learn more

10-Day Weather Forecast

Advertisements
Track Severe Weather on mobile